Skip Navigation Links
NOAA logo - Click to go to the NOAA homepage
NOAA's National Weather Service
Alaska Aviation Weather Unit
  NWS logo - Click to go to the NWS homepage
Left Navbar Graphic     10 AKDT = 18 GMT

   
NOAA is celebrating 200 years of science, service, and stewardship. Visit the NOAA 200th celebration Web site to learn more.
USA.gov is the U.S. Government's official Web portal to all Federal, state and local government Web resources and services.
Facebook
NWS on Facebook

Important Change Regarding the AAWU Web Presence

 

Over the last several months, the AAWU has been working to navigate its webpages to a nationally supported server. Security, as well as other needs, have necessitated the change.  We have been given an extension for the site changeover while we diligently work at addressing feedback received. As of July 14, 2017, aawu.arh.noaa.gov will be discontinued. The new AAWU web address is weather.gov/aawu. It is now live and will run in-parallel with the old site until it is discontinued on July 14, 2017. Please continue to send any feedback or questions regarding the new webpages to nws.ar.aawu.webauthors@noaa.gov.  Thank you for your patience during this time of transition.
AAWU Home :: Display TAF Add Bookmark
METAR PAVA 261256Z AUTO 01010KT 10SM FEW033 03/02 A2996 RMK AO2
 SLP230 T00330017=

METAR PAVA 261456Z AUTO 01014KT 10SM CLR 03/02 A2994 RMK AO2 SLP225
 T00330017 58003=

METAR PAVA 261556Z AUTO 36014KT 10SM SCT030 03/01 A2995 RMK AO2
 SLP226 T00330011=

SPECI PAVA 261639Z AUTO 32008KT 10SM BKN029 03/01 A2995 RMK AO2=

SPECI PAVA 261652Z AUTO 32006KT 10SM OVC031 03/01 A2995 RMK AO2=

METAR PAVA 261656Z AUTO 33008KT 10SM BKN031 03/01 A2995 RMK AO2
 SLP229 T00330011=

METAR PAVA 261756Z AUTO 02016KT 10SM SCT031 04/01 A2994 RMK AO2
 SLP224 T00390011 10039 20028 58002=


NOAA's National Weather Service
Alaska Aviation Weather Unit
6930 Sand Lake Road
Anchorage, AK 99502-1845
Disclaimer
Credits
Glossary
Privacy Policy
About Us
Career Opportunities
Contact AAWU Internet Services Site last modified: April, 17th 2012